createdAt,value
2022-09-24T00:01:30.835Z,101279.04
2022-09-24T00:04:03.257Z,101282.73
2022-09-24T00:06:31.599Z,101288.49
2022-09-24T00:08:59.378Z,101277.73
2022-09-24T00:11:27.882Z,101278.09
2022-09-24T00:13:56.428Z,101279.37
2022-09-24T00:16:24.636Z,101260.57
2022-09-24T00:18:52.814Z,101263.91
2022-09-24T00:21:25.849Z,101256.94
2022-09-24T00:23:55.577Z,101257.40
2022-09-24T00:26:42.249Z,101254.88
2022-09-24T00:29:10.577Z,101250.34
2022-09-24T00:31:38.351Z,101248.30
2022-09-24T00:34:06.333Z,101248.87
2022-09-24T00:36:34.163Z,101254.98
2022-09-24T00:39:01.893Z,101256.19
2022-09-24T00:41:34.493Z,101245.98
2022-09-24T00:44:02.450Z,101237.84
2022-09-24T00:46:34.151Z,101249.23
2022-09-24T00:49:20.249Z,101256.58
2022-09-24T00:51:51.590Z,101240.13
2022-09-24T00:54:22.249Z,101240.98
2022-09-24T00:56:50.482Z,101231.44
2022-09-24T00:59:19.124Z,101224.38
2022-09-24T01:01:47.568Z,101219.44
2022-09-24T01:04:15.774Z,101218.23
2022-09-24T01:06:43.560Z,101205.09
2022-09-24T01:09:11.284Z,101199.33
2022-09-24T01:11:53.565Z,101197.66
2022-09-24T01:14:34.222Z,101196.45
2022-09-24T01:17:24.141Z,101200.54
2022-09-24T01:20:22.794Z,101199.33
2022-09-24T01:23:10.696Z,101187.33
2022-09-24T01:26:21.000Z,101181.97
2022-09-24T01:29:07.308Z,101183.90
2022-09-24T01:31:42.911Z,101184.29
2022-09-24T01:34:10.692Z,101183.90
2022-09-24T01:36:38.604Z,101178.14
2022-09-24T01:39:06.521Z,101184.02
2022-09-24T01:41:35.355Z,101186.77
2022-09-24T01:44:06.633Z,101183.80
2022-09-24T01:46:34.940Z,101194.88
2022-09-24T01:49:02.725Z,101202.11
2022-09-24T01:51:34.395Z,101211.46
2022-09-24T01:54:04.795Z,101232.77
2022-09-24T01:56:42.754Z,101229.09
2022-09-24T01:59:32.367Z,101222.09
2022-09-24T02:02:03.027Z,101250.50
2022-09-24T02:04:35.027Z,101260.70
2022-09-24T02:07:04.673Z,101253.64
2022-09-24T02:09:36.257Z,101251.15
2022-09-24T02:12:14.605Z,101257.33
2022-09-24T02:14:46.252Z,101242.98
2022-09-24T02:17:13.972Z,101241.77
2022-09-24T02:19:41.967Z,101233.50
2022-09-24T02:22:10.505Z,101229.80
2022-09-24T02:24:46.631Z,101223.23
2022-09-24T02:27:14.350Z,101217.97
2022-09-24T02:29:42.102Z,101214.20
2022-09-24T02:32:10.512Z,101219.86
2022-09-24T02:34:41.167Z,101210.80
2022-09-24T02:37:11.726Z,101195.21
2022-09-24T02:39:39.459Z,101175.55
2022-09-24T02:42:07.324Z,101185.86
2022-09-24T02:44:35.192Z,101176.84
2022-09-24T02:47:02.901Z,101181.67
2022-09-24T02:49:30.660Z,101165.16
2022-09-24T02:51:58.408Z,101162.19
2022-09-24T02:54:28.937Z,101160.98
2022-09-24T02:56:56.662Z,101150.58
2022-09-24T02:59:24.353Z,101132.50
2022-09-24T03:01:52.255Z,101131.65
2022-09-24T03:04:20.136Z,101142.41
2022-09-24T03:06:47.884Z,101138.68
2022-09-24T03:09:15.748Z,101146.00
2022-09-24T03:11:43.482Z,101152.97
2022-09-24T03:14:11.279Z,101155.02
2022-09-24T03:16:39.079Z,101153.81
2022-09-24T03:19:07.519Z,101147.96
2022-09-24T03:21:35.312Z,101156.23
2022-09-24T03:24:03.271Z,101156.59
2022-09-24T03:26:31.078Z,101156.23
2022-09-24T03:28:58.802Z,101153.62
2022-09-24T03:31:26.619Z,101156.10
2022-09-24T03:33:54.335Z,101160.29
2022-09-24T03:36:26.077Z,101163.63
2022-09-24T03:38:57.396Z,101166.50
2022-09-24T03:41:26.189Z,101158.72
2022-09-24T03:43:54.159Z,101161.99
2022-09-24T03:46:21.932Z,101147.15
2022-09-24T03:48:50.292Z,101158.63
2022-09-24T03:53:54.864Z,101141.39
2022-09-24T03:56:35.189Z,101144.27
2022-09-24T03:59:08.183Z,101133.97
2022-09-24T04:02:00.476Z,101128.25
2022-09-24T04:04:55.567Z,101124.06
2022-09-24T04:07:35.871Z,101114.02
2022-09-24T04:10:18.156Z,101120.14
2022-09-24T04:15:35.181Z,101109.28
2022-09-24T04:18:03.215Z,101106.51
2022-09-24T04:20:36.199Z,101101.14
2022-09-24T04:23:29.535Z,101106.05
2022-09-24T04:25:57.400Z,101112.16
2022-09-24T04:28:43.099Z,101108.07
2022-09-24T04:31:10.980Z,101116.70
2022-09-24T04:33:45.251Z,101124.23
2022-09-24T04:36:25.354Z,101127.10
2022-09-24T04:38:58.740Z,101125.44
2022-09-24T04:41:31.892Z,101129.13
2022-09-24T04:44:08.378Z,101125.44
2022-09-24T04:46:44.044Z,101138.58
2022-09-24T04:49:16.482Z,101138.84
2022-09-24T04:51:52.030Z,101143.78
2022-09-24T04:54:54.338Z,101145.31
2022-09-24T04:57:27.896Z,101142.93
2022-09-24T04:59:59.169Z,101155.05
2022-09-24T05:02:27.202Z,101154.24
2022-09-24T05:05:00.143Z,101145.87
2022-09-24T05:07:32.964Z,101148.26
2022-09-24T05:10:08.743Z,101152.84
2022-09-24T05:12:41.953Z,101151.23
2022-09-24T05:15:11.131Z,101158.66
2022-09-24T05:17:46.262Z,101158.66
2022-09-24T05:20:20.351Z,101159.11
2022-09-24T05:22:53.926Z,101154.60
2022-09-24T05:25:35.607Z,101155.41
2022-09-24T05:28:09.021Z,101152.18
2022-09-24T05:30:44.089Z,101159.96
2022-09-24T05:33:24.052Z,101165.36
2022-09-24T05:35:59.123Z,101180.92
2022-09-24T05:38:41.704Z,101176.84
2022-09-24T05:41:22.000Z,101173.59
2022-09-24T05:43:52.057Z,101177.65
2022-09-24T05:46:45.214Z,101176.48
2022-09-24T05:49:18.687Z,101179.81
2022-09-24T05:52:19.086Z,101185.92
2022-09-24T05:54:59.132Z,101175.63
2022-09-24T05:57:31.921Z,101186.28
2022-09-24T06:00:04.434Z,101192.04
2022-09-24T06:03:06.465Z,101192.04
2022-09-24T06:05:50.219Z,101190.73
2022-09-24T06:08:30.264Z,101184.16
2022-09-24T06:11:14.268Z,101187.00
2022-09-24T06:13:52.351Z,101191.09
2022-09-24T06:16:21.610Z,101188.57
2022-09-24T06:18:59.145Z,101190.99
2022-09-24T06:21:27.818Z,101188.02
2022-09-24T06:23:58.527Z,101188.87
2022-09-24T06:26:38.936Z,101188.02
2022-09-24T06:29:18.911Z,101191.25
2022-09-24T06:31:57.576Z,101201.09
2022-09-24T06:34:30.389Z,101201.91
2022-09-24T06:37:33.173Z,101208.12
2022-09-24T06:40:06.725Z,101213.03
2022-09-24T06:42:34.594Z,101210.15
2022-09-24T06:45:14.336Z,101215.05
2022-09-24T06:47:52.980Z,101211.36
2022-09-24T06:50:29.825Z,101210.64
2022-09-24T06:53:04.331Z,101209.40
2022-09-24T06:55:37.118Z,101211.95
2022-09-24T06:58:15.025Z,101216.85
2022-09-24T07:00:52.401Z,101209.89
2022-09-24T07:03:25.897Z,101213.59
2022-09-24T07:05:53.672Z,101213.98
2022-09-24T07:08:33.071Z,101219.34
2022-09-24T07:11:17.947Z,101208.32
2022-09-24T07:13:58.089Z,101212.51
2022-09-24T07:16:30.182Z,101216.56
2022-09-24T07:19:03.218Z,101214.56
2022-09-24T07:21:42.048Z,101217.90
2022-09-24T07:24:14.895Z,101226.59
2022-09-24T07:26:47.853Z,101219.66
2022-09-24T07:29:30.401Z,101231.73
2022-09-24T07:32:10.518Z,101239.64
2022-09-24T07:34:51.989Z,101237.23
2022-09-24T07:37:22.874Z,101236.87
2022-09-24T07:39:53.409Z,101237.78
2022-09-24T07:42:27.209Z,101244.74
2022-09-24T07:45:10.911Z,101235.75
2022-09-24T07:47:38.615Z,101237.06
2022-09-24T07:50:19.076Z,101233.43
2022-09-24T07:52:53.410Z,101237.62
2022-09-24T07:55:46.207Z,101242.69
2022-09-24T07:58:39.269Z,101244.35
2022-09-24T08:01:15.559Z,101247.91
2022-09-24T08:04:11.708Z,101251.19
2022-09-24T08:07:04.760Z,101248.30
2022-09-24T08:09:37.511Z,101247.10
2022-09-24T08:12:11.144Z,101249.12
2022-09-24T08:14:44.481Z,101261.59
2022-09-24T08:17:44.051Z,101258.25
2022-09-24T08:20:25.431Z,101259.09
2022-09-24T08:23:11.752Z,101258.25
2022-09-24T08:26:02.178Z,101268.02
2022-09-24T08:31:50.022Z,101266.98
2022-09-24T08:37:30.298Z,101269.23
2022-09-24T08:42:42.464Z,101258.25
2022-09-24T08:45:39.342Z,101257.53
2022-09-24T08:48:35.116Z,101264.20
2022-09-24T08:51:41.606Z,101260.34
2022-09-24T08:54:25.311Z,101261.95
2022-09-24T08:56:58.504Z,101254.13
2022-09-24T08:59:38.888Z,101250.04
2022-09-24T09:02:16.664Z,101260.70
2022-09-24T09:05:09.299Z,101256.19
2022-09-24T09:08:09.679Z,101251.15
2022-09-24T09:10:53.735Z,101256.91
2022-09-24T09:13:39.444Z,101249.59
2022-09-24T09:17:22.968Z,101252.82
2022-09-24T09:20:00.330Z,101259.16
2022-09-24T09:22:37.332Z,101247.66
2022-09-24T09:25:38.095Z,101249.78
2022-09-24T09:28:35.310Z,101251.84
2022-09-24T09:31:36.969Z,101255.04
2022-09-24T09:34:32.730Z,101254.23
2022-09-24T09:37:19.927Z,101248.96
2022-09-24T09:40:18.691Z,101250.27
2022-09-24T09:42:51.279Z,101251.19
2022-09-24T09:45:31.437Z,101248.41
2022-09-24T09:48:23.777Z,101250.07
2022-09-24T09:51:06.347Z,101244.88
2022-09-24T09:53:44.995Z,101244.88
2022-09-24T09:56:15.858Z,101245.82
2022-09-24T09:59:12.721Z,101251.64
2022-09-24T10:01:47.826Z,101252.49
2022-09-24T10:04:42.216Z,101260.27
2022-09-24T10:07:16.512Z,101249.62
2022-09-24T10:09:49.144Z,101248.05
2022-09-24T10:12:25.716Z,101243.93
2022-09-24T10:15:01.849Z,101237.09
2022-09-24T10:17:36.506Z,101232.16
2022-09-24T10:20:42.270Z,101235.88
2022-09-24T10:23:40.345Z,101237.65
2022-09-24T10:26:13.990Z,101236.90
2022-09-24T10:29:10.380Z,101240.13
2022-09-24T10:31:43.217Z,101242.26
2022-09-24T10:34:25.756Z,101249.81
2022-09-24T10:37:10.931Z,101246.05
2022-09-24T10:39:44.461Z,101249.81
2022-09-24T10:42:25.518Z,101254.32
2022-09-24T10:44:54.726Z,101250.99
2022-09-24T10:47:44.710Z,101251.74
2022-09-24T10:50:42.929Z,101240.13
2022-09-24T10:53:40.659Z,101229.09
2022-09-24T10:56:43.725Z,101234.64
2022-09-24T10:59:44.481Z,101239.31
2022-09-24T11:02:40.795Z,101231.60
2022-09-24T11:05:16.727Z,101235.03
2022-09-24T11:08:05.697Z,101235.95
2022-09-24T11:11:02.644Z,101242.65
2022-09-24T11:14:12.954Z,101244.05
2022-09-24T11:16:59.809Z,101241.18
2022-09-24T11:20:16.728Z,101244.05
2022-09-24T11:23:15.598Z,101242.55
2022-09-24T11:26:18.770Z,101238.83
2022-09-24T11:29:16.502Z,101244.16
2022-09-24T11:32:22.545Z,101240.79
2022-09-24T11:35:04.454Z,101231.05
2022-09-24T11:37:48.565Z,101234.94
2022-09-24T11:44:02.268Z,101216.16
2022-09-24T11:47:06.130Z,101228.16
2022-09-24T11:50:09.484Z,101223.23
2022-09-24T11:52:57.730Z,101218.39
2022-09-24T11:55:35.476Z,101212.15
2022-09-24T11:58:19.518Z,101215.16
2022-09-24T12:01:10.789Z,101214.30
2022-09-24T12:03:59.999Z,101211.43
2022-09-24T12:06:36.903Z,101198.31
2022-09-24T12:09:21.022Z,101197.50
2022-09-24T12:11:56.267Z,101199.63
2022-09-24T12:14:49.270Z,101191.52
2022-09-24T12:17:30.117Z,101183.80
2022-09-24T12:20:21.375Z,101179.55
2022-09-24T12:23:02.070Z,101185.23
2022-09-24T12:25:47.429Z,101182.88
2022-09-24T12:28:40.274Z,101173.50
2022-09-24T12:31:54.481Z,101184.02
2022-09-24T12:34:30.865Z,101186.15
2022-09-24T12:37:25.728Z,101178.41
2022-09-24T12:40:25.400Z,101176.90
2022-09-24T12:43:00.836Z,101172.98
2022-09-24T12:45:34.613Z,101178.05
2022-09-24T12:48:08.074Z,101173.04
2022-09-24T12:50:50.111Z,101174.61
2022-09-24T12:53:29.197Z,101165.29
2022-09-24T12:56:21.949Z,101163.10
2022-09-24T12:58:50.577Z,101168.86
2022-09-24T13:01:25.509Z,101165.29
2022-09-24T13:04:15.245Z,101157.94
2022-09-24T13:07:10.976Z,101154.60
2022-09-24T13:10:19.442Z,101155.05
2022-09-24T13:13:21.373Z,101150.52
2022-09-24T13:16:09.577Z,101144.37
2022-09-24T13:18:40.544Z,101150.19
2022-09-24T13:21:09.355Z,101150.68
2022-09-24T13:23:42.086Z,101159.30
2022-09-24T13:26:10.437Z,101155.98
2022-09-24T13:28:52.386Z,101152.31
2022-09-24T13:31:28.380Z,101149.44
2022-09-24T13:34:05.849Z,101155.13
2022-09-24T13:36:38.451Z,101155.98
2022-09-24T13:39:13.098Z,101154.30
2022-09-24T13:42:16.694Z,101153.00
2022-09-24T13:44:49.462Z,101153.78
2022-09-24T13:47:43.630Z,101156.66
2022-09-24T13:50:17.860Z,101154.99
2022-09-24T13:53:00.283Z,101150.35
2022-09-24T13:55:35.780Z,101161.04
2022-09-24T13:58:03.581Z,101154.01
2022-09-24T14:00:38.388Z,101153.62
2022-09-24T14:03:26.872Z,101152.34
2022-09-24T14:06:20.204Z,101154.41
2022-09-24T14:08:52.954Z,101161.27
2022-09-24T14:11:32.079Z,101157.18
2022-09-24T14:14:12.679Z,101160.35
2022-09-24T14:16:45.500Z,101159.54
2022-09-24T14:19:27.222Z,101161.14
2022-09-24T14:22:00.895Z,101155.22
2022-09-24T14:24:35.002Z,101149.47
2022-09-24T14:27:14.696Z,101147.67
2022-09-24T14:29:59.168Z,101139.23
2022-09-24T14:32:35.351Z,101138.61
2022-09-24T14:35:36.326Z,101142.34
2022-09-24T14:38:27.035Z,101132.10
2022-09-24T14:40:57.832Z,101133.41
2022-09-24T14:43:47.270Z,101133.19
2022-09-24T14:46:24.006Z,101133.67
2022-09-24T14:49:14.909Z,101122.98
2022-09-24T14:52:19.706Z,101114.71
2022-09-24T14:55:05.732Z,101111.80
2022-09-24T14:57:42.252Z,101108.79
2022-09-24T15:00:37.021Z,101101.37
2022-09-24T15:03:13.594Z,101094.66
2022-09-24T15:05:47.253Z,101085.22
2022-09-24T15:08:29.098Z,101084.86
2022-09-24T15:11:03.691Z,101087.34
2022-09-24T15:13:41.221Z,101085.48
2022-09-24T15:16:23.227Z,101089.70
2022-09-24T15:19:12.343Z,101098.98
2022-09-24T15:21:46.273Z,101102.77
2022-09-24T15:24:21.471Z,101099.90
2022-09-24T15:26:53.972Z,101103.98
2022-09-24T15:29:25.165Z,101100.29
2022-09-24T15:31:57.647Z,101108.47
2022-09-24T15:34:49.037Z,101108.47
2022-09-24T15:37:28.274Z,101110.03
2022-09-24T15:40:12.796Z,101108.27
2022-09-24T15:42:49.028Z,101110.69
2022-09-24T15:45:30.667Z,101108.17
2022-09-24T15:48:03.308Z,101107.35
2022-09-24T15:50:34.178Z,101107.75
2022-09-24T15:53:04.777Z,101110.63
2022-09-24T15:55:40.499Z,101099.93
2022-09-24T15:58:17.212Z,101104.77
2022-09-24T16:00:51.781Z,101109.67
2022-09-24T16:03:32.610Z,101103.17
2022-09-24T16:06:00.842Z,101099.93
2022-09-24T16:08:37.613Z,101094.99
2022-09-24T16:11:09.016Z,101099.12
2022-09-24T16:13:41.965Z,101086.36
2022-09-24T16:16:23.913Z,101090.84
2022-09-24T16:18:52.945Z,101091.23
2022-09-24T16:21:25.436Z,101089.11
2022-09-24T16:24:02.744Z,101092.74
2022-09-24T16:26:44.207Z,101095.52
2022-09-24T16:29:22.695Z,101094.66
2022-09-24T16:31:53.374Z,101099.60
2022-09-24T16:34:25.208Z,101094.66
2022-09-24T16:36:57.815Z,101088.03
2022-09-24T16:39:32.415Z,101094.99
2022-09-24T16:42:04.249Z,101092.02
2022-09-24T16:44:48.027Z,101087.48
2022-09-24T16:47:32.737Z,101098.92
2022-09-24T16:50:20.718Z,101100.88
2022-09-24T16:53:06.818Z,101097.84
2022-09-24T16:55:40.396Z,101100.26
2022-09-24T16:58:19.712Z,101106.87
2022-09-24T17:00:54.966Z,101099.05
2022-09-24T17:03:28.345Z,101101.77
2022-09-24T17:06:19.471Z,101114.02
2022-09-24T17:09:19.786Z,101105.30
2022-09-24T17:12:09.342Z,101110.13
2022-09-24T17:14:43.383Z,101094.02
2022-09-24T17:17:49.204Z,101098.82
2022-09-24T17:20:22.842Z,101100.52
2022-09-24T17:22:59.125Z,101103.66
2022-09-24T17:25:27.907Z,101110.98
2022-09-24T17:28:01.364Z,101112.48
2022-09-24T17:30:36.541Z,101116.12
2022-09-24T17:33:38.722Z,101110.27
2022-09-24T17:36:05.102Z,101116.38
2022-09-24T17:38:40.870Z,101119.26
2022-09-24T17:41:12.703Z,101117.13
2022-09-24T17:43:52.521Z,101121.12
2022-09-24T17:46:25.155Z,101123.08
2022-09-24T17:48:57.446Z,101118.80
2022-09-24T17:51:28.598Z,101116.90
2022-09-24T17:54:05.183Z,101122.66
2022-09-24T17:56:40.055Z,101120.14
2022-09-24T17:59:14.623Z,101123.87
2022-09-24T18:01:45.547Z,101129.45
2022-09-24T18:04:17.919Z,101126.22
2022-09-24T18:06:55.168Z,101129.75
2022-09-24T18:09:28.975Z,101123.02
2022-09-24T18:11:59.395Z,101128.77
2022-09-24T18:14:50.980Z,101131.65
2022-09-24T18:17:18.741Z,101126.28
2022-09-24T18:19:56.012Z,101127.49
2022-09-24T18:22:38.302Z,101127.10
2022-09-24T18:25:10.910Z,101128.77
2022-09-24T18:27:45.726Z,101128.41
2022-09-24T18:30:18.570Z,101128.93
2022-09-24T18:32:53.425Z,101124.00
2022-09-24T18:35:26.103Z,101126.97
2022-09-24T18:38:03.930Z,101130.21
2022-09-24T18:40:38.035Z,101131.87
2022-09-24T18:43:08.790Z,101129.36
2022-09-24T18:45:39.998Z,101127.79
2022-09-24T18:48:08.323Z,101122.88
2022-09-24T18:50:45.527Z,101130.66
2022-09-24T18:53:16.109Z,101128.18
2022-09-24T18:55:51.147Z,101138.45
2022-09-24T18:58:23.668Z,101131.78
2022-09-24T19:00:59.016Z,101127.92
2022-09-24T19:03:34.754Z,101139.33
2022-09-24T19:06:07.227Z,101143.78
2022-09-24T19:08:35.804Z,101135.15
2022-09-24T19:11:10.944Z,101140.90
2022-09-24T19:13:39.808Z,101140.90
2022-09-24T19:16:19.544Z,101136.29
2022-09-24T19:19:02.036Z,101134.59
2022-09-24T19:21:37.232Z,101134.59
2022-09-24T19:24:20.972Z,101130.54
2022-09-24T19:26:53.446Z,101135.08
2022-09-24T19:29:21.260Z,101136.65
2022-09-24T19:31:57.027Z,101141.95
2022-09-24T19:34:33.307Z,101141.81
2022-09-24T19:37:05.808Z,101144.59
2022-09-24T19:39:36.817Z,101146.06
2022-09-24T19:42:09.316Z,101146.06
2022-09-24T19:44:52.790Z,101149.30
2022-09-24T19:47:27.571Z,101153.36
2022-09-24T19:50:16.501Z,101156.63
2022-09-24T19:52:49.884Z,101150.05
2022-09-24T19:55:17.749Z,101161.44
2022-09-24T19:57:50.814Z,101157.28
2022-09-24T20:00:26.135Z,101153.81
2022-09-24T20:02:59.702Z,101155.02
2022-09-24T20:05:32.702Z,101154.44
2022-09-24T20:14:18.541Z,101156.01
2022-09-24T20:16:46.251Z,101151.49
2022-09-24T20:19:14.172Z,101153.13
2022-09-24T20:21:41.938Z,101151.10
2022-09-24T20:24:12.384Z,101147.31
2022-09-24T20:26:58.606Z,101148.48
2022-09-24T20:29:26.547Z,101151.33
2022-09-24T20:32:01.586Z,101156.27
2022-09-24T20:34:34.574Z,101159.51
2022-09-24T20:37:06.768Z,101158.69
2022-09-24T20:39:34.761Z,101154.60
2022-09-24T20:42:04.779Z,101174.31
2022-09-24T20:44:33.238Z,101169.45
2022-09-24T20:47:01.296Z,101161.17
2022-09-24T20:49:29.316Z,101164.41
2022-09-24T20:51:58.012Z,101161.44
2022-09-24T20:54:26.983Z,101168.76
2022-09-24T20:56:54.787Z,101163.85
2022-09-24T20:59:22.580Z,101169.94
2022-09-24T21:01:50.464Z,101168.53
2022-09-24T21:04:20.984Z,101165.55
2022-09-24T21:06:49.536Z,101168.30
2022-09-24T21:09:18.284Z,101166.63
2022-09-24T21:11:51.271Z,101167.94
2022-09-24T21:14:19.710Z,101164.60
2022-09-24T21:16:50.667Z,101168.30
2022-09-24T21:19:18.476Z,101164.21
2022-09-24T21:21:46.231Z,101169.51
2022-09-24T21:24:15.639Z,101170.36
2022-09-24T21:26:43.840Z,101166.17
2022-09-24T21:29:17.625Z,101163.20
2022-09-24T21:31:47.253Z,101162.80
2022-09-24T21:34:17.082Z,101157.18
2022-09-24T21:36:46.613Z,101153.85
2022-09-24T21:39:24.042Z,101153.03
2022-09-24T21:41:54.080Z,101142.27
2022-09-24T21:44:22.682Z,101145.87
2022-09-24T21:46:53.438Z,101149.56
2022-09-24T21:49:21.250Z,101150.28
2022-09-24T21:51:49.029Z,101147.31
2022-09-24T21:54:18.292Z,101150.77
2022-09-24T21:56:46.504Z,101150.32
2022-09-24T21:59:33.763Z,101146.13
2022-09-24T22:02:01.747Z,101150.22
2022-09-24T22:04:29.954Z,101146.49
2022-09-24T22:06:57.749Z,101148.06
2022-09-24T22:09:26.647Z,101141.36
2022-09-24T22:11:56.950Z,101145.05
2022-09-24T22:14:24.792Z,101152.02
2022-09-24T22:16:52.671Z,101147.47
2022-09-24T22:19:20.604Z,101146.98
2022-09-24T22:21:48.503Z,101143.65
2022-09-24T22:24:18.993Z,101146.36
2022-09-24T22:26:47.290Z,101141.81
2022-09-24T22:29:17.233Z,101145.91
2022-09-24T22:31:48.645Z,101148.39
2022-09-24T22:34:34.811Z,101147.08
2022-09-24T22:37:06.150Z,101146.27
2022-09-24T22:39:35.060Z,101145.64
2022-09-24T22:42:02.790Z,101145.64
2022-09-24T22:44:30.591Z,101149.73
2022-09-24T22:46:58.336Z,101145.55
2022-09-24T22:49:26.904Z,101142.17
2022-09-24T22:51:54.738Z,101149.96
2022-09-24T22:54:24.173Z,101147.08
2022-09-24T22:56:52.131Z,101151.63
2022-09-24T22:59:20.308Z,101150.35
2022-09-24T23:01:48.052Z,101146.59
2022-09-24T23:04:16.134Z,101142.90
2022-09-24T23:06:44.693Z,101141.98
2022-09-24T23:09:12.515Z,101135.73
2022-09-24T23:11:40.514Z,101132.43
2022-09-24T23:14:12.234Z,101124.16
2022-09-24T23:16:40.350Z,101133.48
2022-09-24T23:19:14.847Z,101123.21
2022-09-24T23:21:42.757Z,101132.17
2022-09-24T23:24:15.360Z,101133.25
2022-09-24T23:26:43.218Z,101130.38
2022-09-24T23:29:11.136Z,101126.68
2022-09-24T23:31:38.945Z,101133.97
2022-09-24T23:34:08.653Z,101120.83
2022-09-24T23:36:36.725Z,101131.32
2022-09-24T23:39:04.870Z,101129.69
2022-09-24T23:41:32.786Z,101123.12
2022-09-24T23:44:00.872Z,101126.68
2022-09-24T23:46:28.761Z,101123.34
2022-09-24T23:48:56.844Z,101126.09
2022-09-24T23:51:24.587Z,101122.23
2022-09-24T23:53:52.615Z,101127.73
2022-09-24T23:56:20.548Z,101123.44
2022-09-24T23:58:48.606Z,101128.31
